AXY21 EGPH-EGLL
Flight info
| Callsign | AXY21 |
|---|---|
| Flight time | 0h 55m |
| Altitude | 25000 |
| Route | GOSAM DCT FENIK L612 ELBUS/N0445F330 DCT LAKEY DCT NUGRA |
| Aircraft | A343/H-SDE2E3FGHIJ4J5M1RWXY/LB1D1 |
Departure
| Time | 2026-04-21 20:22 |
|---|---|
| Airport | Edinburgh Airport (EGPH) |
Arrival
| Time | 2026-04-21 21:18 |
|---|---|
| Airport | London Heathrow Airport (EGLL) |
| Time | Latitude | Longitude | Altitude | Speed | Heading |
|---|---|---|---|---|---|
| 2026-04-21 19:59 | 55.95020 | -3.36068 | 120 ft | 0 kts | 248° |
| 2026-04-21 20:11 | 55.95024 | -3.36049 | 119 ft | 3 kts | 248° |
| 2026-04-21 20:11 | 55.95031 | -3.36018 | 116 ft | 3 kts | 248° |
| 2026-04-21 20:11 | 55.95038 | -3.35987 | 118 ft | 3 kts | 248° |
| 2026-04-21 20:11 | 55.95044 | -3.35960 | 115 ft | 3 kts | 257° |
| 2026-04-21 20:12 | 55.95048 | -3.35928 | 115 ft | 3 kts | 265° |
| 2026-04-21 20:12 | 55.95049 | -3.35895 | 115 ft | 3 kts | 257° |
| 2026-04-21 20:12 | 55.95051 | -3.35862 | 115 ft | 0 kts | 293° |
| 2026-04-21 20:16 | 55.95052 | -3.35865 | 115 ft | 2 kts | 293° |
| 2026-04-21 20:16 | 55.95063 | -3.35904 | 115 ft | 6 kts | 300° |
| 2026-04-21 20:16 | 55.95091 | -3.35996 | 116 ft | 11 kts | 295° |
| 2026-04-21 20:16 | 55.95111 | -3.36091 | 119 ft | 1 kts | 289° |
| 2026-04-21 20:17 | 55.95118 | -3.36129 | 116 ft | 5 kts | 289° |
| 2026-04-21 20:17 | 55.95135 | -3.36226 | 117 ft | 10 kts | 284° |
| 2026-04-21 20:17 | 55.95113 | -3.36343 | 117 ft | 12 kts | 240° |
| 2026-04-21 20:17 | 55.95066 | -3.36485 | 115 ft | 15 kts | 239° |
| 2026-04-21 20:18 | 55.95028 | -3.36599 | 116 ft | 17 kts | 239° |
| 2026-04-21 20:18 | 55.94935 | -3.36872 | 115 ft | 22 kts | 238° |
| 2026-04-21 20:18 | 55.94851 | -3.37117 | 115 ft | 25 kts | 238° |
| 2026-04-21 20:18 | 55.94759 | -3.37392 | 115 ft | 27 kts | 239° |
| 2026-04-21 20:19 | 55.94669 | -3.37658 | 115 ft | 25 kts | 239° |
| 2026-04-21 20:19 | 55.94572 | -3.37941 | 116 ft | 28 kts | 238° |
| 2026-04-21 20:19 | 55.94470 | -3.38243 | 115 ft | 29 kts | 239° |
| 2026-04-21 20:19 | 55.94369 | -3.38538 | 116 ft | 21 kts | 238° |
| 2026-04-21 20:20 | 55.94296 | -3.38755 | 116 ft | 4 kts | 239° |
| 2026-04-21 20:20 | 55.94288 | -3.38787 | 118 ft | 9 kts | 249° |
| 2026-04-21 20:20 | 55.94300 | -3.38868 | 115 ft | 7 kts | 309° |
| 2026-04-21 20:20 | 55.94347 | -3.38932 | 114 ft | 10 kts | 328° |
| 2026-04-21 20:21 | 55.94419 | -3.38945 | 114 ft | 9 kts | 36° |
| 2026-04-21 20:21 | 55.94436 | -3.38905 | 115 ft | 0 kts | 58° |
| 2026-04-21 20:22 | 55.94437 | -3.38904 | 115 ft | 2 kts | 58° |
| 2026-04-21 20:22 | 55.94957 | -3.37379 | 221 ft | 143 kts | 59° |
| 2026-04-21 20:22 | 55.95501 | -3.35858 | 1028 ft | 143 kts | 57° |
| 2026-04-21 20:23 | 55.96126 | -3.34376 | 1778 ft | 163 kts | 52° |
| 2026-04-21 20:23 | 55.96992 | -3.32863 | 2458 ft | 184 kts | 43° |
| 2026-04-21 20:23 | 55.98161 | -3.31605 | 3153 ft | 215 kts | 22° |
| 2026-04-21 20:23 | 55.99770 | -3.31527 | 3732 ft | 256 kts | 348° |
| 2026-04-21 20:24 | 56.01273 | -3.33328 | 4528 ft | 270 kts | 312° |
| 2026-04-21 20:24 | 56.02276 | -3.36231 | 5369 ft | 280 kts | 300° |
| 2026-04-21 20:24 | 56.02828 | -3.39581 | 5834 ft | 285 kts | 271° |
| 2026-04-21 20:24 | 56.02468 | -3.43046 | 5986 ft | 286 kts | 251° |
| 2026-04-21 20:25 | 56.01823 | -3.46427 | 5997 ft | 287 kts | 250° |
| 2026-04-21 20:25 | 56.01211 | -3.49839 | 5995 ft | 288 kts | 252° |
| 2026-04-21 20:25 | 56.00650 | -3.53259 | 6252 ft | 286 kts | 253° |
| 2026-04-21 20:25 | 56.00115 | -3.56704 | 6894 ft | 290 kts | 253° |
| 2026-04-21 20:26 | 55.99588 | -3.60210 | 7973 ft | 292 kts | 254° |
| 2026-04-21 20:26 | 55.99063 | -3.63720 | 9242 ft | 293 kts | 253° |
| 2026-04-21 20:26 | 55.98534 | -3.67261 | 10427 ft | 298 kts | 253° |
| 2026-04-21 20:26 | 55.97998 | -3.70861 | 11270 ft | 312 kts | 253° |
| 2026-04-21 20:27 | 55.97412 | -3.74798 | 11741 ft | 336 kts | 254° |
| 2026-04-21 20:27 | 55.96806 | -3.78879 | 12388 ft | 351 kts | 254° |
| 2026-04-21 20:27 | 55.96173 | -3.83150 | 13295 ft | 358 kts | 254° |
| 2026-04-21 20:27 | 55.95529 | -3.87488 | 14214 ft | 365 kts | 254° |
| 2026-04-21 20:28 | 55.94793 | -3.91853 | 15088 ft | 370 kts | 248° |
| 2026-04-21 20:28 | 55.93632 | -3.95976 | 15903 ft | 374 kts | 234° |
| 2026-04-21 20:28 | 55.91969 | -3.99550 | 16747 ft | 376 kts | 221° |
| 2026-04-21 20:28 | 55.90025 | -4.02688 | 17663 ft | 379 kts | 218° |
| 2026-04-21 20:29 | 55.88023 | -4.05790 | 18554 ft | 384 kts | 218° |
| 2026-04-21 20:29 | 55.85994 | -4.08939 | 19335 ft | 389 kts | 219° |
| 2026-04-21 20:29 | 55.83940 | -4.12138 | 20105 ft | 393 kts | 219° |
| 2026-04-21 20:29 | 55.81901 | -4.15319 | 20849 ft | 397 kts | 219° |
| 2026-04-21 20:30 | 55.79816 | -4.18574 | 21562 ft | 402 kts | 219° |
| 2026-04-21 20:30 | 55.77661 | -4.21779 | 22304 ft | 405 kts | 216° |
| 2026-04-21 20:30 | 55.75384 | -4.24756 | 23026 ft | 408 kts | 213° |
| 2026-04-21 20:30 | 55.75171 | -4.25022 | 23092 ft | 408 kts | 213° |
| 2026-04-21 20:31 | 55.74852 | -4.25419 | 23181 ft | 409 kts | 212° |
| 2026-04-21 20:31 | 55.72457 | -4.28200 | 23832 ft | 412 kts | 205° |
| 2026-04-21 20:31 | 55.69751 | -4.29723 | 24450 ft | 411 kts | 186° |
| 2026-04-21 20:31 | 55.66899 | -4.29566 | 25010 ft | 411 kts | 167° |
| 2026-04-21 20:32 | 55.64229 | -4.27800 | 25389 ft | 416 kts | 149° |
| 2026-04-21 20:32 | 55.61924 | -4.24659 | 25509 ft | 421 kts | 135° |
| 2026-04-21 20:32 | 55.59839 | -4.20949 | 25505 ft | 428 kts | 134° |
| 2026-04-21 20:32 | 55.57681 | -4.17302 | 25501 ft | 432 kts | 137° |
| 2026-04-21 20:33 | 55.55338 | -4.13945 | 25499 ft | 431 kts | 142° |
| 2026-04-21 20:33 | 55.52870 | -4.10958 | 25504 ft | 430 kts | 146° |
| 2026-04-21 20:33 | 55.50303 | -4.08220 | 25497 ft | 430 kts | 149° |
| 2026-04-21 20:33 | 55.47719 | -4.05681 | 25497 ft | 432 kts | 151° |
| 2026-04-21 20:34 | 55.45012 | -4.03237 | 25496 ft | 433 kts | 153° |
| 2026-04-21 20:34 | 55.42340 | -4.00927 | 25495 ft | 435 kts | 154° |
| 2026-04-21 20:34 | 55.39613 | -3.98585 | 25489 ft | 436 kts | 154° |
| 2026-04-21 20:34 | 55.36895 | -3.96229 | 25489 ft | 437 kts | 154° |
| 2026-04-21 20:35 | 55.34171 | -3.93839 | 25489 ft | 437 kts | 153° |
| 2026-04-21 20:35 | 55.31463 | -3.91440 | 25490 ft | 437 kts | 153° |
| 2026-04-21 20:35 | 55.28747 | -3.89022 | 25483 ft | 437 kts | 153° |
| 2026-04-21 20:35 | 55.26050 | -3.86615 | 25481 ft | 437 kts | 153° |
| 2026-04-21 20:36 | 55.23320 | -3.84179 | 25481 ft | 436 kts | 153° |
| 2026-04-21 20:36 | 55.20626 | -3.81778 | 25481 ft | 435 kts | 153° |
| 2026-04-21 20:36 | 55.17931 | -3.79382 | 25478 ft | 435 kts | 153° |
| 2026-04-21 20:36 | 55.15219 | -3.76977 | 25476 ft | 438 kts | 153° |
| 2026-04-21 20:37 | 55.12475 | -3.74550 | 25470 ft | 448 kts | 153° |
| 2026-04-21 20:37 | 55.09664 | -3.72068 | 25468 ft | 453 kts | 153° |
| 2026-04-21 20:37 | 55.06850 | -3.69587 | 25471 ft | 453 kts | 153° |
| 2026-04-21 20:37 | 55.04030 | -3.67104 | 25473 ft | 453 kts | 153° |
| 2026-04-21 20:38 | 55.01229 | -3.64642 | 25474 ft | 452 kts | 153° |
| 2026-04-21 20:38 | 54.98417 | -3.62173 | 25471 ft | 452 kts | 153° |
| 2026-04-21 20:38 | 54.95609 | -3.59711 | 25471 ft | 452 kts | 153° |
| 2026-04-21 20:38 | 54.92798 | -3.57251 | 25472 ft | 454 kts | 154° |
| 2026-04-21 20:39 | 54.89965 | -3.54775 | 25465 ft | 458 kts | 154° |
| 2026-04-21 20:39 | 54.87111 | -3.52285 | 25465 ft | 461 kts | 154° |
| 2026-04-21 20:39 | 54.84241 | -3.49787 | 25463 ft | 460 kts | 154° |
| 2026-04-21 20:39 | 54.81380 | -3.47299 | 25465 ft | 459 kts | 154° |
| 2026-04-21 20:40 | 54.78524 | -3.44819 | 25463 ft | 459 kts | 154° |
| 2026-04-21 20:40 | 54.75677 | -3.42349 | 25464 ft | 458 kts | 154° |
| 2026-04-21 20:40 | 54.72824 | -3.39880 | 25465 ft | 460 kts | 154° |
| 2026-04-21 20:40 | 54.69951 | -3.37398 | 25450 ft | 461 kts | 154° |
| 2026-04-21 20:41 | 54.67077 | -3.34919 | 25456 ft | 462 kts | 154° |
| 2026-04-21 20:41 | 54.64194 | -3.32435 | 25455 ft | 464 kts | 155° |
| 2026-04-21 20:41 | 54.61301 | -3.29946 | 25454 ft | 466 kts | 155° |
| 2026-04-21 20:41 | 54.58397 | -3.27454 | 25447 ft | 466 kts | 154° |
| 2026-04-21 20:42 | 54.55494 | -3.24965 | 25448 ft | 465 kts | 154° |
| 2026-04-21 20:42 | 54.52601 | -3.22489 | 25449 ft | 464 kts | 154° |
| 2026-04-21 20:42 | 54.49755 | -3.20056 | 25446 ft | 464 kts | 154° |
| 2026-04-21 20:42 | 54.46855 | -3.17582 | 25445 ft | 463 kts | 154° |
| 2026-04-21 20:43 | 54.43973 | -3.15127 | 25448 ft | 462 kts | 154° |
| 2026-04-21 20:43 | 54.41082 | -3.12668 | 25448 ft | 465 kts | 154° |
| 2026-04-21 20:43 | 54.38182 | -3.10206 | 25441 ft | 466 kts | 154° |
| 2026-04-21 20:43 | 54.35274 | -3.07741 | 25444 ft | 467 kts | 155° |
| 2026-04-21 20:44 | 54.32361 | -3.05276 | 25442 ft | 467 kts | 154° |
| 2026-04-21 20:44 | 54.29455 | -3.02819 | 25436 ft | 466 kts | 155° |
| 2026-04-21 20:44 | 54.26538 | -3.00358 | 25433 ft | 467 kts | 155° |
| 2026-04-21 20:44 | 54.23588 | -2.98023 | 25433 ft | 467 kts | 160° |
| 2026-04-21 20:45 | 54.20524 | -2.96149 | 25426 ft | 467 kts | 162° |
| 2026-04-21 20:45 | 54.17443 | -2.94381 | 25433 ft | 468 kts | 163° |
| 2026-04-21 20:45 | 54.14349 | -2.92615 | 25432 ft | 469 kts | 163° |
| 2026-04-21 20:45 | 54.11260 | -2.90849 | 25431 ft | 470 kts | 163° |
| 2026-04-21 20:46 | 54.09204 | -2.89673 | 25422 ft | 470 kts | 163° |
| 2026-04-21 20:46 | 54.06102 | -2.87899 | 25420 ft | 470 kts | 163° |
| 2026-04-21 20:46 | 54.02001 | -2.85557 | 25416 ft | 470 kts | 163° |
| 2026-04-21 20:46 | 53.98903 | -2.83790 | 25411 ft | 470 kts | 163° |
| 2026-04-21 20:47 | 53.95797 | -2.82020 | 25404 ft | 470 kts | 163° |
| 2026-04-21 20:47 | 53.92692 | -2.80254 | 25422 ft | 474 kts | 163° |
| 2026-04-21 20:47 | 53.90565 | -2.79047 | 25413 ft | 477 kts | 163° |
| 2026-04-21 20:47 | 53.86381 | -2.76676 | 25412 ft | 480 kts | 163° |
| 2026-04-21 20:48 | 53.84278 | -2.75485 | 25413 ft | 480 kts | 163° |
| 2026-04-21 20:48 | 53.81109 | -2.73692 | 25405 ft | 480 kts | 163° |
| 2026-04-21 20:48 | 53.77955 | -2.71911 | 25410 ft | 479 kts | 163° |
| 2026-04-21 20:48 | 53.74786 | -2.70124 | 25410 ft | 479 kts | 163° |
| 2026-04-21 20:49 | 53.71613 | -2.68338 | 25410 ft | 479 kts | 163° |
| 2026-04-21 20:49 | 53.68448 | -2.66560 | 25406 ft | 482 kts | 164° |
| 2026-04-21 20:49 | 53.65246 | -2.64765 | 25402 ft | 487 kts | 164° |
| 2026-04-21 20:49 | 53.62026 | -2.62962 | 25402 ft | 489 kts | 164° |
| 2026-04-21 20:50 | 53.58792 | -2.61154 | 25403 ft | 489 kts | 164° |
| 2026-04-21 20:50 | 53.55563 | -2.59350 | 25403 ft | 489 kts | 164° |
| 2026-04-21 20:50 | 53.52342 | -2.57555 | 25397 ft | 487 kts | 163° |
| 2026-04-21 20:50 | 53.49144 | -2.55774 | 25399 ft | 481 kts | 163° |
| 2026-04-21 20:51 | 53.45979 | -2.54014 | 25400 ft | 479 kts | 163° |
| 2026-04-21 20:51 | 53.42817 | -2.52260 | 25401 ft | 478 kts | 163° |
| 2026-04-21 20:51 | 53.39656 | -2.50510 | 25402 ft | 478 kts | 163° |
| 2026-04-21 20:51 | 53.36488 | -2.48758 | 25401 ft | 478 kts | 163° |
| 2026-04-21 20:52 | 53.33322 | -2.47010 | 25404 ft | 479 kts | 163° |
| 2026-04-21 20:52 | 53.30167 | -2.45271 | 25401 ft | 479 kts | 163° |
| 2026-04-21 20:52 | 53.26991 | -2.43523 | 25399 ft | 479 kts | 163° |
| 2026-04-21 20:52 | 53.23874 | -2.41809 | 25397 ft | 479 kts | 163° |
| 2026-04-21 20:53 | 53.20664 | -2.40048 | 25400 ft | 480 kts | 164° |
| 2026-04-21 20:53 | 53.17521 | -2.38327 | 25397 ft | 484 kts | 164° |
| 2026-04-21 20:53 | 53.14310 | -2.36571 | 25391 ft | 487 kts | 164° |
| 2026-04-21 20:53 | 53.11097 | -2.34816 | 25393 ft | 487 kts | 164° |
| 2026-04-21 20:54 | 53.07876 | -2.33059 | 25304 ft | 487 kts | 164° |
| 2026-04-21 20:54 | 53.04645 | -2.31302 | 24699 ft | 485 kts | 164° |
| 2026-04-21 20:54 | 53.01511 | -2.29294 | 23986 ft | 482 kts | 152° |
| 2026-04-21 20:54 | 52.98712 | -2.26316 | 23361 ft | 474 kts | 147° |
| 2026-04-21 20:55 | 52.95986 | -2.23287 | 22469 ft | 470 kts | 147° |
| 2026-04-21 20:55 | 52.93259 | -2.20329 | 21712 ft | 463 kts | 147° |
| 2026-04-21 20:55 | 52.90600 | -2.17490 | 21377 ft | 449 kts | 147° |
| 2026-04-21 20:55 | 52.87985 | -2.14725 | 21042 ft | 443 kts | 147° |
| 2026-04-21 20:56 | 52.85385 | -2.11993 | 20625 ft | 442 kts | 147° |
| 2026-04-21 20:56 | 52.82787 | -2.09276 | 20413 ft | 439 kts | 147° |
| 2026-04-21 20:56 | 52.80209 | -2.06588 | 20366 ft | 440 kts | 147° |
| 2026-04-21 20:56 | 52.77607 | -2.03881 | 20365 ft | 441 kts | 148° |
| 2026-04-21 20:57 | 52.75016 | -2.01191 | 20367 ft | 439 kts | 148° |
| 2026-04-21 20:57 | 52.72463 | -1.98540 | 20365 ft | 439 kts | 147° |
| 2026-04-21 20:57 | 52.69842 | -1.95828 | 20364 ft | 438 kts | 147° |
| 2026-04-21 20:57 | 52.67302 | -1.93205 | 20366 ft | 436 kts | 147° |
| 2026-04-21 20:58 | 52.64723 | -1.90545 | 20358 ft | 436 kts | 147° |
| 2026-04-21 20:58 | 52.62152 | -1.87896 | 20357 ft | 435 kts | 147° |
| 2026-04-21 20:58 | 52.59584 | -1.85254 | 20370 ft | 435 kts | 147° |
| 2026-04-21 20:58 | 52.57013 | -1.82613 | 20372 ft | 437 kts | 147° |
| 2026-04-21 20:59 | 52.54424 | -1.79957 | 20371 ft | 438 kts | 147° |
| 2026-04-21 20:59 | 52.51836 | -1.77305 | 20371 ft | 438 kts | 148° |
| 2026-04-21 20:59 | 52.49259 | -1.74667 | 20373 ft | 437 kts | 148° |
| 2026-04-21 20:59 | 52.46668 | -1.72021 | 20375 ft | 439 kts | 148° |
| 2026-04-21 21:00 | 52.44074 | -1.69374 | 20373 ft | 440 kts | 148° |
| 2026-04-21 21:00 | 52.41473 | -1.66724 | 20373 ft | 441 kts | 148° |
| 2026-04-21 21:00 | 52.38872 | -1.64078 | 20373 ft | 441 kts | 148° |
| 2026-04-21 21:00 | 52.36266 | -1.61431 | 20369 ft | 441 kts | 148° |
| 2026-04-21 21:01 | 52.33655 | -1.58782 | 20364 ft | 441 kts | 148° |
| 2026-04-21 21:01 | 52.31040 | -1.56132 | 20251 ft | 441 kts | 148° |
| 2026-04-21 21:01 | 52.28429 | -1.53492 | 19810 ft | 440 kts | 147° |
| 2026-04-21 21:01 | 52.25841 | -1.50878 | 19311 ft | 435 kts | 148° |
| 2026-04-21 21:02 | 52.23330 | -1.48344 | 18939 ft | 426 kts | 147° |
| 2026-04-21 21:02 | 52.20889 | -1.45692 | 18575 ft | 417 kts | 140° |
| 2026-04-21 21:02 | 52.18716 | -1.42643 | 18180 ft | 411 kts | 137° |
| 2026-04-21 21:02 | 52.16567 | -1.39596 | 17765 ft | 406 kts | 137° |
| 2026-04-21 21:03 | 52.14441 | -1.36601 | 17374 ft | 403 kts | 137° |
| 2026-04-21 21:03 | 52.12323 | -1.33633 | 16990 ft | 401 kts | 137° |
| 2026-04-21 21:03 | 52.10211 | -1.30683 | 16605 ft | 399 kts | 138° |
| 2026-04-21 21:03 | 52.08107 | -1.27751 | 16205 ft | 397 kts | 137° |
| 2026-04-21 21:04 | 52.06015 | -1.24842 | 15818 ft | 395 kts | 138° |
| 2026-04-21 21:04 | 52.03928 | -1.21945 | 15477 ft | 392 kts | 138° |
| 2026-04-21 21:04 | 52.01854 | -1.19071 | 15330 ft | 391 kts | 137° |
| 2026-04-21 21:04 | 51.99790 | -1.16215 | 15320 ft | 388 kts | 137° |
| 2026-04-21 21:05 | 51.97752 | -1.13398 | 15329 ft | 381 kts | 138° |
| 2026-04-21 21:05 | 51.95747 | -1.10630 | 15325 ft | 379 kts | 137° |
| 2026-04-21 21:05 | 51.93740 | -1.07851 | 15319 ft | 379 kts | 138° |
| 2026-04-21 21:05 | 51.91729 | -1.05082 | 15318 ft | 380 kts | 137° |
| 2026-04-21 21:06 | 51.89716 | -1.02317 | 15315 ft | 380 kts | 138° |
| 2026-04-21 21:06 | 51.87694 | -0.99542 | 15315 ft | 380 kts | 138° |
| 2026-04-21 21:06 | 51.85573 | -0.97014 | 15317 ft | 379 kts | 147° |
| 2026-04-21 21:06 | 51.83237 | -0.95225 | 15316 ft | 362 kts | 156° |
| 2026-04-21 21:07 | 51.80924 | -0.93820 | 15122 ft | 349 kts | 158° |
| 2026-04-21 21:07 | 51.78671 | -0.92516 | 14882 ft | 339 kts | 158° |
| 2026-04-21 21:07 | 51.76498 | -0.91278 | 14628 ft | 332 kts | 158° |
| 2026-04-21 21:07 | 51.74302 | -0.90038 | 14123 ft | 326 kts | 158° |
| 2026-04-21 21:08 | 51.72203 | -0.88862 | 13526 ft | 311 kts | 158° |
| 2026-04-21 21:08 | 51.70227 | -0.87762 | 12922 ft | 292 kts | 158° |
| 2026-04-21 21:08 | 51.68367 | -0.86726 | 12306 ft | 279 kts | 158° |
| 2026-04-21 21:08 | 51.66539 | -0.85706 | 11682 ft | 269 kts | 157° |
| 2026-04-21 21:09 | 51.64815 | -0.84743 | 11081 ft | 262 kts | 157° |
| 2026-04-21 21:09 | 51.63108 | -0.83796 | 10398 ft | 259 kts | 157° |
| 2026-04-21 21:09 | 51.61395 | -0.82842 | 9261 ft | 264 kts | 156° |
| 2026-04-21 21:09 | 51.59623 | -0.81854 | 8042 ft | 271 kts | 156° |
| 2026-04-21 21:10 | 51.57847 | -0.80871 | 6984 ft | 268 kts | 156° |
| 2026-04-21 21:10 | 51.56126 | -0.79926 | 5849 ft | 254 kts | 156° |
| 2026-04-21 21:10 | 51.54501 | -0.79035 | 4758 ft | 240 kts | 156° |
| 2026-04-21 21:10 | 51.52952 | -0.78183 | 3814 ft | 228 kts | 155° |
| 2026-04-21 21:11 | 51.51507 | -0.77390 | 3242 ft | 213 kts | 155° |
| 2026-04-21 21:11 | 51.50159 | -0.76652 | 3021 ft | 194 kts | 154° |
| 2026-04-21 21:11 | 51.48966 | -0.76001 | 3016 ft | 168 kts | 152° |
| 2026-04-21 21:11 | 51.48132 | -0.75080 | 2997 ft | 128 kts | 112° |
| 2026-04-21 21:12 | 51.47858 | -0.73872 | 3012 ft | 106 kts | 101° |
| 2026-04-21 21:12 | 51.47727 | -0.72733 | 3014 ft | 105 kts | 95° |
| 2026-04-21 21:12 | 51.47664 | -0.71556 | 2989 ft | 106 kts | 92° |
| 2026-04-21 21:12 | 51.47630 | -0.70375 | 2873 ft | 108 kts | 91° |
| 2026-04-21 21:13 | 51.47614 | -0.69173 | 2716 ft | 108 kts | 90° |
| 2026-04-21 21:13 | 51.47608 | -0.67979 | 2562 ft | 107 kts | 88° |
| 2026-04-21 21:13 | 51.47618 | -0.66781 | 2420 ft | 106 kts | 88° |
| 2026-04-21 21:13 | 51.47624 | -0.65622 | 2259 ft | 105 kts | 89° |
| 2026-04-21 21:14 | 51.47629 | -0.64454 | 2126 ft | 103 kts | 89° |
| 2026-04-21 21:14 | 51.47636 | -0.63316 | 1970 ft | 102 kts | 88° |
| 2026-04-21 21:14 | 51.47642 | -0.62171 | 1835 ft | 102 kts | 87° |
| 2026-04-21 21:14 | 51.47650 | -0.61046 | 1696 ft | 100 kts | 86° |
| 2026-04-21 21:15 | 51.47658 | -0.59925 | 1560 ft | 102 kts | 86° |
| 2026-04-21 21:15 | 51.47665 | -0.58766 | 1413 ft | 106 kts | 86° |
| 2026-04-21 21:15 | 51.47674 | -0.57565 | 1229 ft | 109 kts | 87° |
| 2026-04-21 21:15 | 51.47682 | -0.56338 | 1069 ft | 111 kts | 87° |
| 2026-04-21 21:16 | 51.47727 | -0.55105 | 905 ft | 111 kts | 80° |
| 2026-04-21 21:16 | 51.47729 | -0.53822 | 780 ft | 116 kts | 84° |
| 2026-04-21 21:16 | 51.47736 | -0.52514 | 586 ft | 117 kts | 83° |
| 2026-04-21 21:16 | 51.47740 | -0.51209 | 429 ft | 117 kts | 86° |
| 2026-04-21 21:17 | 51.47749 | -0.49909 | 291 ft | 118 kts | 85° |
| 2026-04-21 21:17 | 51.47749 | -0.48580 | 155 ft | 120 kts | 85° |
| 2026-04-21 21:17 | 51.47755 | -0.47325 | 100 ft | 104 kts | 86° |
| 2026-04-21 21:17 | 51.47761 | -0.46387 | 93 ft | 58 kts | 90° |
| 2026-04-21 21:18 | 51.47760 | -0.46017 | 92 ft | 9 kts | 90° |
| 2026-04-21 21:18 | 51.47761 | -0.45791 | 90 ft | 34 kts | 89° |
| 2026-04-21 21:18 | 51.47705 | -0.45483 | 92 ft | 14 kts | 155° |
| 2026-04-21 21:18 | 51.47643 | -0.45470 | 91 ft | 0 kts | 177° |
| 2026-04-21 21:19 | 51.47630 | -0.45469 | 90 ft | 6 kts | 177° |
| 2026-04-21 21:20 | 51.47578 | -0.45465 | 90 ft | 9 kts | 179° |
| 2026-04-21 21:20 | 51.47520 | -0.45420 | 92 ft | 10 kts | 127° |
| 2026-04-21 21:20 | 51.47508 | -0.45301 | 93 ft | 12 kts | 90° |
| 2026-04-21 21:20 | 51.47509 | -0.45153 | 93 ft | 14 kts | 89° |
| 2026-04-21 21:21 | 51.47510 | -0.44979 | 93 ft | 17 kts | 90° |
| 2026-04-21 21:21 | 51.47510 | -0.44781 | 93 ft | 19 kts | 89° |
| 2026-04-21 21:21 | 51.47510 | -0.44710 | 93 ft | 0 kts | 90° |
| 2026-04-21 21:21 | 51.47510 | -0.44708 | 93 ft | 2 kts | 90° |
| 2026-04-21 21:22 | 51.47499 | -0.44607 | 94 ft | 16 kts | 111° |
| 2026-04-21 21:22 | 51.47416 | -0.44556 | 91 ft | 17 kts | 176° |
| 2026-04-21 21:22 | 51.47350 | -0.44536 | 94 ft | 5 kts | 129° |
| 2026-04-21 21:22 | 51.47341 | -0.44452 | 93 ft | 9 kts | 91° |
| 2026-04-21 21:23 | 51.47340 | -0.44410 | 93 ft | 0 kts | 90° |